Time;durP1;ratioP1;P1;durP2;ratioP2;P2;SDS_P1;SDS_P2;PMS_P1;PMS_P2;Temp;Humidity;BMP_temperature;BMP_pressure;BME280_temperature;BME280_humidity;BME280_pressure;Samples;Min_cycle;Max_cycle;Signal;HPM_P1;HPM_P2
2022/04/17 00:01:32;;;;;;;28.40;23.90;;;;;;;8.81;48.14;103048.94;5019756;28;20258;-71
2022/04/17 00:03:58;;;;;;;33.80;26.60;;;;;;;8.79;47.95;103046.25;5018853;28;20219;-72
2022/04/17 00:06:23;;;;;;;32.63;26.77;;;;;;;8.62;49.08;103040.16;5020125;28;20207;-72
2022/04/17 00:08:49;;;;;;;34.70;29.20;;;;;;;8.63;48.49;103028.91;5019664;28;20600;-73
2022/04/17 00:11:15;;;;;;;38.53;30.50;;;;;;;8.74;48.27;103035.63;5019532;28;20478;-72
2022/04/17 00:13:40;;;;;;;34.30;28.67;;;;;;;8.43;48.98;103023.50;5019475;28;20177;-73
2022/04/17 00:16:06;;;;;;;38.67;30.77;;;;;;;8.50;49.06;103029.97;5019514;28;20811;-72
2022/04/17 00:18:31;;;;;;;35.87;31.53;;;;;;;8.62;48.99;103032.34;5019331;28;20175;-71
2022/04/17 00:20:58;;;;;;;43.33;34.33;;;;;;;8.36;49.30;103030.84;5019810;28;20533;-71
2022/04/17 00:23:23;;;;;;;43.60;34.00;;;;;;;8.50;49.46;103037.75;5019472;28;20171;-72
2022/04/17 00:25:49;;;;;;;43.07;35.73;;;;;;;8.46;49.52;103038.41;5019122;28;20736;-71
2022/04/17 00:28:14;;;;;;;44.03;32.90;;;;;;;8.65;49.41;103037.72;5019773;28;20182;-73
2022/04/17 00:30:39;;;;;;;42.37;36.97;;;;;;;8.40;49.63;103035.41;5019307;28;20191;-72
2022/04/17 00:33:05;;;;;;;42.93;37.40;;;;;;;8.20;50.14;103030.03;5019153;28;20186;-71
2022/04/17 00:35:30;;;;;;;48.73;40.27;;;;;;;8.26;50.25;103026.88;5019781;28;20174;-71
2022/04/17 00:37:55;;;;;;;49.83;43.70;;;;;;;7.91;50.97;103030.94;5019230;28;20270;-71
2022/04/17 00:40:21;;;;;;;52.77;44.47;;;;;;;7.70;51.88;103022.81;5019154;28;20445;-71
2022/04/17 00:42:46;;;;;;;51.27;42.90;;;;;;;7.68;52.19;103020.13;5019750;28;20167;-71
2022/04/17 00:45:12;;;;;;;54.33;44.83;;;;;;;8.09;51.35;103019.03;5019071;28;20238;-72
2022/04/17 00:47:37;;;;;;;52.93;44.03;;;;;;;8.12;51.50;103012.19;5019237;28;20265;-70
2022/04/17 00:50:04;;;;;;;53.37;45.27;;;;;;;7.90;52.20;103017.09;5019304;28;20177;-70
2022/04/17 00:52:29;;;;;;;54.20;45.30;;;;;;;7.75;53.01;103017.09;5018792;28;20175;-71
2022/04/17 00:54:54;;;;;;;51.57;43.10;;;;;;;7.92;52.52;103010.25;5018904;28;20467;-71
2022/04/17 00:57:20;;;;;;;57.60;44.87;;;;;;;7.85;53.12;103010.72;5019355;28;20167;-71
2022/04/17 00:59:46;;;;;;;59.33;46.60;;;;;;;7.76;53.20;103008.47;5018296;28;20218;-73
2022/04/17 01:02:15;;;;;;;55.33;42.43;;;;;;;7.78;53.24;103015.47;5018745;28;20170;-71
2022/04/17 01:04:41;;;;;;;50.67;40.27;;;;;;;7.40;54.47;103010.72;5019344;28;20458;-71
2022/04/17 01:07:08;;;;;;;48.10;39.30;;;;;;;7.45;55.12;103015.28;5018851;28;20413;-72
2022/04/17 01:09:35;;;;;;;47.70;39.43;;;;;;;7.35;55.29;103017.34;5018111;28;20291;-71
2022/04/17 01:12:00;;;;;;;49.80;40.30;;;;;;;7.56;54.99;103019.41;5018802;28;20500;-71
2022/04/17 01:14:26;;;;;;;47.80;38.83;;;;;;;7.73;55.16;103017.81;5017843;28;20516;-71
2022/04/17 01:16:52;;;;;;;45.87;38.50;;;;;;;7.78;54.84;103013.78;5018644;28;20181;-72
2022/04/17 01:19:18;;;;;;;43.87;37.10;;;;;;;7.49;55.58;103007.75;5019051;28;20728;-71
2022/04/17 01:21:46;;;;;;;40.97;35.20;;;;;;;7.64;55.71;103007.75;5018560;28;20177;-71
2022/04/17 01:26:56;;;;;;;43.60;37.27;;;;;;;7.50;56.51;103001.78;5018032;28;20421;-72
2022/04/17 01:29:27;;;;;;;40.87;34.20;;;;;;;7.32;57.12;102999.00;5018251;28;20690;-71
2022/04/17 01:31:54;;;;;;;42.33;34.20;;;;;;;7.19;57.39;103002.53;5018341;28;20410;-71
2022/04/17 01:34:21;;;;;;;42.40;35.07;;;;;;;7.58;56.91;102992.72;5018411;28;20422;-71
2022/04/17 01:36:47;;;;;;;43.30;34.90;;;;;;;7.45;56.67;102991.94;5018931;28;20654;-72
2022/04/17 01:39:13;;;;;;;38.10;33.77;;;;;;;7.55;56.74;102989.97;5018255;28;20410;-73
2022/04/17 01:41:39;;;;;;;37.90;30.70;;;;;;;7.55;56.66;102984.78;5018885;28;20435;-73
2022/04/17 01:44:05;;;;;;;42.33;32.00;;;;;;;7.52;56.67;102982.00;5019217;28;20525;-74
2022/04/17 01:46:30;;;;;;;35.73;30.00;;;;;;;7.14;57.24;102995.28;5018484;28;20167;-73
2022/04/17 01:48:55;;;;;;;36.30;30.20;;;;;;;7.43;56.72;102984.06;5018463;28;20509;-74
2022/04/17 01:51:21;;;;;;;33.50;29.53;;;;;;;7.48;56.50;102980.03;5018569;28;20175;-72
2022/04/17 01:53:47;;;;;;;40.93;27.87;;;;;;;7.24;56.76;102979.50;5018358;28;20182;-72
2022/04/17 01:56:12;;;;;;;38.93;31.07;;;;;;;7.33;57.16;102974.81;5018265;28;20437;-71
2022/04/17 01:58:38;;;;;;;40.67;30.40;;;;;;;7.44;56.30;102972.84;5018652;28;20174;-72
2022/04/17 02:01:04;;;;;;;38.70;30.43;;;;;;;7.50;56.45;102972.34;5018133;28;20480;-71
2022/04/17 02:03:29;;;;;;;34.70;29.43;;;;;;;7.14;57.22;102969.34;5018160;28;20230;-72
2022/04/17 02:05:54;;;;;;;40.93;31.60;;;;;;;7.40;57.08;102971.81;5018613;28;20214;-71
2022/04/17 02:08:20;;;;;;;37.30;31.40;;;;;;;7.33;57.39;102967.03;5018132;28;20462;-71
2022/04/17 02:10:45;;;;;;;38.47;32.00;;;;;;;7.24;57.06;102969.13;5017960;28;20422;-71
2022/04/17 02:13:11;;;;;;;38.97;33.00;;;;;;;7.59;57.35;102965.97;5018226;28;20171;-71
2022/04/17 02:15:36;;;;;;;45.27;35.10;;;;;;;7.42;57.11;102962.38;5018007;28;20171;-71
2022/04/17 02:18:01;;;;;;;37.30;33.27;;;;;;;7.28;57.53;102960.72;5017249;28;20186;-72
2022/04/17 02:20:26;;;;;;;41.80;34.10;;;;;;;7.49;57.10;102961.03;5018449;28;20438;-71
2022/04/17 02:22:52;;;;;;;45.97;36.00;;;;;;;7.23;57.52;102964.72;5017833;28;20194;-71
2022/04/17 02:25:17;;;;;;;44.80;34.47;;;;;;;7.18;57.30;102955.75;5017722;28;20599;-71
2022/04/17 02:27:44;;;;;;;43.00;35.67;;;;;;;7.27;57.37;102953.72;5018280;28;20257;-71
2022/04/17 02:30:09;;;;;;;42.03;35.53;;;;;;;7.17;57.69;102956.56;5017915;28;20195;-72
2022/04/17 02:32:35;;;;;;;46.07;36.40;;;;;;;7.18;57.65;102947.97;5017748;28;20456;-72
2022/04/17 02:35:00;;;;;;;42.83;34.30;;;;;;;7.04;57.85;102944.56;5018492;28;20414;-71
2022/04/17 02:37:26;;;;;;;49.10;35.97;;;;;;;6.93;58.42;102946.53;5020068;28;20182;-73
2022/04/17 02:39:51;;;;;;;41.87;35.27;;;;;;;7.04;57.84;102949.75;5020518;28;20179;-73
2022/04/17 02:42:16;;;;;;;40.93;34.07;;;;;;;7.04;57.70;102948.06;5021699;28;20167;-72
2022/04/17 02:44:41;;;;;;;39.20;32.37;;;;;;;7.11;57.78;102941.53;5021203;28;20206;-71
2022/04/17 02:49:50;;;;;;;38.90;29.83;;;;;;;7.07;57.54;102940.44;5021294;28;20571;-72
2022/04/17 02:52:16;;;;;;;37.87;32.03;;;;;;;7.45;56.57;102934.84;5020935;28;20414;-72
2022/04/17 02:54:41;;;;;;;42.23;32.03;;;;;;;7.59;56.45;102934.81;5021476;28;20186;-72
2022/04/17 02:57:07;;;;;;;42.20;32.90;;;;;;;7.55;56.43;102934.53;5020965;28;20186;-71
2022/04/17 02:59:32;;;;;;;40.10;31.00;;;;;;;7.37;56.59;102930.09;5021241;28;20194;-72
2022/04/17 03:07:25;;;;;;;39.60;31.90;;;;;;;7.72;56.69;102928.63;5020352;28;20495;-71
2022/04/17 03:09:50;;;;;;;38.53;31.70;;;;;;;7.32;57.46;102917.66;5020815;28;20438;-71
2022/04/17 03:12:15;;;;;;;36.47;32.53;;;;;;;7.62;57.30;102910.75;5020581;28;20182;-72
2022/04/17 03:14:41;;;;;;;38.40;30.80;;;;;;;7.29;57.42;102907.97;5021160;28;20189;-72
2022/04/17 03:17:06;;;;;;;34.90;29.80;;;;;;;7.57;57.36;102907.88;5020592;28;20599;-72
2022/04/17 03:19:32;;;;;;;35.97;30.67;;;;;;;7.59;57.60;102913.19;5021103;28;20167;-71
2022/04/17 03:21:57;;;;;;;33.30;29.67;;;;;;;7.30;57.86;102921.88;5021097;28;20241;-71
2022/04/17 03:24:22;;;;;;;33.80;28.90;;;;;;;7.40;57.83;102912.13;5020419;28;20195;-73
2022/04/17 03:26:48;;;;;;;32.43;28.30;;;;;;;7.54;57.23;102917.22;5020427;28;20443;-72
2022/04/17 03:29:13;;;;;;;32.43;27.27;;;;;;;7.74;56.50;102906.25;5020877;28;20248;-73
2022/04/17 03:31:38;;;;;;;31.40;27.70;;;;;;;7.81;56.42;102904.88;5020305;28;20170;-72
2022/04/17 03:34:08;;;;;;;31.73;26.30;;;;;;;7.35;56.87;102916.13;5020170;28;20171;-72
2022/04/17 03:36:39;;;;;;;35.83;27.60;;;;;;;7.78;56.81;102909.00;5020728;28;20162;-71
2022/04/17 03:39:05;;;;;;;35.10;27.93;;;;;;;7.83;56.26;102910.16;5020401;28;20410;-71
2022/04/17 03:41:31;;;;;;;35.73;29.17;;;;;;;7.95;56.66;102908.25;5020070;28;20417;-71
2022/04/17 03:43:56;;;;;;;32.50;27.80;;;;;;;7.87;56.72;102913.00;5020636;28;20514;-71
2022/04/17 03:46:22;;;;;;;34.53;30.83;;;;;;;7.79;57.40;102913.41;5019512;28;20163;-71
2022/04/17 03:48:47;;;;;;;35.57;30.57;;;;;;;7.44;58.45;102912.28;5019475;28;20221;-72
2022/04/17 03:51:12;;;;;;;34.03;28.87;;;;;;;7.58;58.32;102907.06;5020355;28;20175;-71
2022/04/17 03:53:38;;;;;;;33.90;30.20;;;;;;;7.71;57.95;102907.75;5020023;28;20162;-73
2022/04/17 03:56:03;;;;;;;34.53;29.33;;;;;;;7.63;58.13;102915.13;5019954;28;20201;-73
2022/04/17 03:58:28;;;;;;;35.63;31.50;;;;;;;7.35;59.11;102921.31;5020210;28;20202;-72
2022/04/17 04:00:54;;;;;;;38.77;32.03;;;;;;;7.14;60.86;102915.75;5019815;28;20174;-72
2022/04/17 04:03:19;;;;;;;36.13;32.30;;;;;;;7.33;60.39;102916.84;5019563;28;20219;-72
2022/04/17 04:05:44;;;;;;;38.60;33.30;;;;;;;7.38;60.30;102913.72;5020251;28;20461;-73
2022/04/17 04:08:09;;;;;;;37.57;32.73;;;;;;;7.30;60.56;102922.75;5019832;28;20552;-73
2022/04/17 04:10:35;;;;;;;41.80;33.73;;;;;;;7.28;61.01;102923.47;5019896;28;20612;-72
2022/04/17 04:13:01;;;;;;;40.10;34.07;;;;;;;7.32;61.13;102909.88;5019985;28;20196;-72
2022/04/17 04:15:26;;;;;;;43.80;34.67;;;;;;;7.26;61.02;102915.59;5019588;28;20236;-72
2022/04/17 04:17:52;;;;;;;45.20;36.63;;;;;;;6.97;62.08;102917.38;5019740;28;20422;-71
2022/04/17 04:20:17;;;;;;;41.70;37.20;;;;;;;7.14;61.83;102917.47;5019964;28;20178;-70
2022/04/17 04:22:42;;;;;;;45.37;39.13;;;;;;;7.25;61.44;102919.00;5019525;28;20175;-72
2022/04/17 04:25:08;;;;;;;41.77;36.50;;;;;;;7.31;61.05;102921.06;5019434;28;20241;-72
2022/04/17 04:30:18;;;;;;;41.90;36.20;;;;;;;7.18;60.87;102922.03;5019489;28;20692;-71
2022/04/17 04:32:53;;;;;;;40.57;35.43;;;;;;;7.04;61.56;102922.13;5019348;28;20414;-71
2022/04/17 04:35:20;;;;;;;42.70;37.40;;;;;;;7.48;60.83;102922.94;5018926;28;20178;-70
2022/04/17 04:37:45;;;;;;;45.77;37.73;;;;;;;7.64;59.83;102927.28;5019114;28;20425;-72
2022/04/17 04:40:11;;;;;;;46.60;38.60;;;;;;;7.29;60.75;102931.34;5019350;28;20414;-71
2022/04/17 04:42:36;;;;;;;41.87;34.80;;;;;;;7.31;60.24;102923.66;5018925;28;20186;-72
2022/04/17 04:47:46;;;;;;;42.20;34.43;;;;;;;7.48;59.90;102916.84;5018996;28;20217;-72
2022/04/17 04:50:11;;;;;;;43.70;35.90;;;;;;;7.67;59.97;102921.38;5019160;28;20414;-72
2022/04/17 04:52:37;;;;;;;35.33;31.60;;;;;;;7.55;59.38;102918.97;5018806;28;20487;-70
2022/04/17 04:55:04;;;;;;;35.57;31.53;;;;;;;7.78;59.28;102916.78;5019051;28;20257;-71
2022/04/17 04:57:29;;;;;;;36.73;31.40;;;;;;;7.64;59.15;102921.22;5018845;28;20406;-72
2022/04/17 04:59:55;;;;;;;37.73;30.90;;;;;;;7.83;58.31;102925.75;5018021;28;20414;-71
2022/04/17 05:02:21;;;;;;;33.00;29.50;;;;;;;7.63;58.61;102924.59;5018684;28;20222;-71
2022/04/17 05:04:46;;;;;;;36.97;31.13;;;;;;;7.76;58.28;102925.38;5019211;28;20445;-71
2022/04/17 05:07:11;;;;;;;37.60;31.50;;;;;;;7.64;58.17;102927.28;5018795;28;20202;-72
2022/04/17 05:09:37;;;;;;;35.20;28.33;;;;;;;7.96;58.08;102927.34;5018697;28;20171;-71
2022/04/17 05:12:03;;;;;;;33.90;30.20;;;;;;;7.45;58.15;102929.66;5018993;28;20178;-72
2022/04/17 05:14:29;;;;;;;34.37;30.53;;;;;;;7.77;58.13;102936.69;5018646;28;20528;-71
2022/04/17 05:16:54;;;;;;;32.87;29.23;;;;;;;8.00;56.95;102924.97;5017916;28;20559;-72
2022/04/17 05:19:27;;;;;;;35.07;28.47;;;;;;;7.74;58.33;102929.59;5018917;28;20163;-71
2022/04/17 05:21:57;;;;;;;30.70;27.47;;;;;;;7.57;59.06;102926.03;5018420;28;20251;-72
2022/04/17 05:24:23;;;;;;;31.77;27.93;;;;;;;7.87;57.48;102932.91;5018340;28;20696;-72
2022/04/17 05:26:48;;;;;;;33.87;28.73;;;;;;;7.86;57.18;102926.81;5018535;28;20467;-71
2022/04/17 05:29:13;;;;;;;35.70;28.57;;;;;;;7.50;57.87;102921.31;5018286;28;20197;-72
2022/04/17 05:31:39;;;;;;;31.47;27.90;;;;;;;7.91;57.25;102920.19;5018626;28;20170;-71
2022/04/17 05:34:04;;;;;;;33.87;28.70;;;;;;;7.64;57.81;102923.81;5018433;28;20537;-72
2022/04/17 05:36:29;;;;;;;31.50;27.13;;;;;;;8.05;56.49;102920.94;5018344;28;20178;-71
2022/04/17 05:38:55;;;;;;;31.23;26.73;;;;;;;7.75;57.04;102927.91;5018600;28;20175;-71
2022/04/17 05:41:22;;;;;;;33.57;28.60;;;;;;;8.08;56.67;102928.91;5018256;28;20166;-72
2022/04/17 05:43:48;;;;;;;27.10;24.00;;;;;;;10.45;49.57;102927.75;5017495;28;20425;-72
2022/04/17 05:46:14;;;;;;;26.43;21.57;;;;;;;12.10;44.54;102916.34;5018704;28;20932;-73
2022/04/17 05:48:39;;;;;;;21.63;18.90;;;;;;;13.92;38.90;102903.41;5018379;28;20186;-72
2022/04/17 05:51:04;;;;;;;22.40;19.03;;;;;;;15.88;35.29;102893.69;5017986;28;20710;-72
2022/04/17 05:53:30;;;;;;;23.03;20.40;;;;;;;15.40;35.66;102896.09;5018363;28;20293;-72
2022/04/17 05:55:56;;;;;;;26.87;22.07;;;;;;;16.06;35.00;102883.59;5018199;28;20178;-72
2022/04/17 05:58:21;;;;;;;24.07;21.67;;;;;;;16.40;34.59;102892.16;5018190;28;20819;-72
2022/04/17 06:00:47;;;;;;;22.87;20.63;;;;;;;17.06;33.70;102886.38;5018568;28;20213;-72
2022/04/17 06:03:15;;;;;;;19.70;17.90;;;;;;;17.50;31.44;102889.72;5014476;28;20219;-74
2022/04/17 06:05:41;;;;;;;21.50;19.20;;;;;;;17.61;31.42;102889.88;4998457;28;20277;-72
2022/04/17 06:08:08;;;;;;;20.10;18.00;;;;;;;17.51;30.40;102886.22;4998899;28;20789;-73
2022/04/17 06:10:33;;;;;;;20.80;18.70;;;;;;;17.49;31.38;102887.97;4998434;28;20485;-74
2022/04/17 06:12:58;;;;;;;18.97;17.27;;;;;;;17.67;30.77;102891.72;5001468;28;20418;-74
2022/04/17 06:15:24;;;;;;;20.20;18.30;;;;;;;17.34;30.66;102887.72;5002609;28;20178;-73
2022/04/17 06:17:49;;;;;;;20.93;18.37;;;;;;;17.15;31.56;102892.69;5002060;28;20183;-74
2022/04/17 06:20:15;;;;;;;22.37;19.97;;;;;;;17.33;31.26;102883.28;5011284;28;20181;-75
2022/04/17 06:22:41;;;;;;;20.73;17.17;;;;;;;17.57;29.90;102885.44;5022044;28;20163;-74
2022/04/17 06:25:08;;;;;;;22.00;19.70;;;;;;;16.25;32.47;102886.56;5021582;28;20432;-73
2022/04/17 06:27:41;;;;;;;21.30;19.30;;;;;;;17.16;31.21;102890.94;5021620;28;20697;-73
2022/04/17 06:30:11;;;;;;;21.90;19.83;;;;;;;16.74;32.00;102886.66;5024543;28;20444;-74
2022/04/17 06:32:37;;;;;;;18.43;16.63;;;;;;;17.43;29.00;102885.22;5020077;28;20422;-74
2022/04/17 06:35:02;;;;;;;21.70;19.60;;;;;;;17.92;29.85;102884.19;5022175;28;20417;-73
2022/04/17 06:37:28;;;;;;;20.50;18.60;;;;;;;17.41;29.61;102871.13;5036518;28;20427;-75
2022/04/17 06:39:55;;;;;;;20.33;18.30;;;;;;;18.67;27.27;102873.63;5039942;28;20269;-72
2022/04/17 06:42:21;;;;;;;17.83;16.13;;;;;;;17.28;28.19;102877.97;5041332;28;20430;-73
2022/04/17 06:44:46;;;;;;;20.30;18.20;;;;;;;19.39;25.78;102862.81;5040935;28;20448;-72
2022/04/17 06:47:11;;;;;;;17.80;16.00;;;;;;;18.10;27.30;102878.25;5025576;28;20178;-74
2022/04/17 06:49:37;;;;;;;19.33;17.27;;;;;;;18.43;27.07;102875.16;5020687;28;20442;-75
2022/04/17 06:52:02;;;;;;;19.63;17.53;;;;;;;18.48;26.98;102869.91;5020916;28;20545;-75
2022/04/17 06:54:27;;;;;;;19.80;17.70;;;;;;;18.12;27.33;102871.25;5020415;28;20175;-75
2022/04/17 06:56:53;;;;;;;18.73;16.93;;;;;;;17.67;28.06;102874.16;5021650;28;20178;-75
2022/04/17 06:59:18;;;;;;;19.40;17.47;;;;;;;17.23;28.62;102876.13;5021124;28;20194;-72
2022/04/17 07:01:43;;;;;;;16.77;15.27;;;;;;;18.30;26.83;102870.59;5019637;28;20471;-73
2022/04/17 07:04:08;;;;;;;20.20;18.20;;;;;;;18.88;26.15;102859.75;5020500;28;20485;-72
2022/04/17 07:06:34;;;;;;;18.50;16.73;;;;;;;17.15;28.42;102883.91;5020399;28;20194;-71
2022/04/17 07:08:59;;;;;;;19.20;17.40;;;;;;;17.36;28.00;102877.19;5021027;28;20186;-72
2022/04/17 07:11:25;;;;;;;18.07;16.27;;;;;;;18.94;26.33;102865.13;5020596;28;20182;-74
2022/04/17 07:13:50;;;;;;;17.17;15.50;;;;;;;19.36;25.20;102857.47;5020606;28;20178;-74
2022/04/17 07:16:16;;;;;;;17.40;15.77;;;;;;;18.73;26.24;102868.41;5020550;28;20808;-74
2022/04/17 07:18:46;;;;;;;17.37;15.83;;;;;;;18.93;25.36;102867.72;5020493;28;20186;-72
2022/04/17 07:21:16;;;;;;;17.10;15.50;;;;;;;17.96;27.00;102860.50;5025993;28;20182;-72
2022/04/17 07:23:45;;;;;;;17.73;15.93;;;;;;;17.39;27.28;102862.31;5029671;28;20920;-71
2022/04/17 07:26:11;;;;;;;16.67;15.03;;;;;;;19.43;25.01;102848.72;5023302;28;20959;-72
2022/04/17 07:28:40;;;;;;;17.67;16.07;;;;;;;18.71;26.05;102861.31;5036840;28;20520;-70
2022/04/17 07:31:08;;;;;;;17.60;16.00;;;;;;;18.96;25.63;102855.44;5024128;28;20324;-70
2022/04/17 07:33:34;;;;;;;16.40;14.80;;;;;;;18.57;25.95;102858.56;5029929;28;20425;-72
2022/04/17 07:35:59;;;;;;;17.40;15.67;;;;;;;18.86;25.02;102853.53;5019951;28;20424;-72
2022/04/17 07:38:24;;;;;;;18.27;16.57;;;;;;;19.19;25.48;102844.16;5025800;28;20450;-75
2022/04/17 07:40:51;;;;;;;17.27;15.60;;;;;;;19.45;24.79;102844.31;5027309;28;20540;-75
2022/04/17 07:43:17;;;;;;;16.07;14.67;;;;;;;17.37;27.80;102852.59;5028970;28;20167;-76
2022/04/17 07:45:42;;;;;;;14.97;13.47;;;;;;;18.54;25.69;102840.91;5031384;28;20750;-75
2022/04/17 07:48:08;;;;;;;11.53;10.47;;;;;;;18.03;25.43;102850.91;5028941;28;20194;-74
2022/04/17 07:50:33;;;;;;;11.80;10.80;;;;;;;19.12;24.32;102837.03;5034871;28;20174;-76
2022/04/17 07:53:00;;;;;;;9.90;9.00;;;;;;;19.82;22.70;102841.03;5024129;28;20171;-76
2022/04/17 07:55:25;;;;;;;8.93;8.13;;;;;;;19.13;23.44;102842.34;5027689;28;20182;-77
2022/04/17 08:00:32;;;;;;;8.90;8.17;;;;;;;18.48;24.06;102847.03;5035327;28;20214;-77
2022/04/17 08:03:08;;;;;;;9.10;8.20;;;;;;;18.28;24.70;102845.91;5023939;28;20444;-75
2022/04/17 08:05:40;;;;;;;7.03;6.33;;;;;;;18.26;23.07;102847.66;5019743;28;20484;-76
2022/04/17 08:08:06;;;;;;;6.33;5.73;;;;;;;19.29;21.57;102834.53;5019800;28;20487;-77
2022/04/17 08:10:32;;;;;;;5.50;5.00;;;;;;;18.92;21.45;102843.06;5027846;28;20505;-78
2022/04/17 08:12:58;;;;;;;6.07;5.57;;;;;;;19.09;21.74;102834.38;5023424;28;20857;-74
2022/04/17 08:15:23;;;;;;;5.73;5.27;;;;;;;19.87;20.69;102833.13;5027109;28;20433;-74
2022/04/17 08:17:48;;;;;;;5.73;5.23;;;;;;;18.65;21.18;102838.38;5017911;28;20174;-73
2022/04/17 08:20:14;;;;;;;6.20;5.60;;;;;;;18.73;21.39;102822.63;5011812;28;20191;-73
2022/04/17 08:22:39;;;;;;;6.23;5.63;;;;;;;19.37;21.00;102824.00;5013078;28;20209;-73
2022/04/17 08:25:05;;;;;;;6.70;6.07;;;;;;;19.25;21.24;102822.16;5027106;28;20202;-71
2022/04/17 08:27:30;;;;;;;6.40;5.80;;;;;;;20.14;20.43;102813.78;5025766;28;20182;-72
2022/04/17 08:29:55;;;;;;;7.60;6.90;;;;;;;21.45;19.45;102813.81;5024016;28;20186;-74
2022/04/17 08:32:21;;;;;;;6.70;6.10;;;;;;;21.07;19.48;102817.44;5034379;28;20179;-72
2022/04/17 08:34:46;;;;;;;7.23;6.63;;;;;;;20.68;19.58;102808.59;5028243;28;20177;-73
2022/04/17 08:37:11;;;;;;;7.40;6.70;;;;;;;21.32;19.28;102812.09;5019413;28;20178;-74
2022/04/17 08:39:37;;;;;;;7.17;6.57;;;;;;;21.15;19.51;102807.72;5020436;28;20183;-75
2022/04/17 08:42:04;;;;;;;6.90;6.30;;;;;;;20.51;20.03;102803.25;5034735;28;20575;-74
2022/04/17 08:44:30;;;;;;;7.60;7.00;;;;;;;20.48;20.20;102806.78;5005800;28;20630;-71
2022/04/17 08:46:55;;;;;;;9.67;7.13;;;;;;;19.49;21.68;102805.56;5030276;28;20430;-71
2022/04/17 08:49:21;;;;;;;7.37;6.77;;;;;;;19.82;21.68;102812.81;5028717;28;20236;-71
2022/04/17 08:51:48;;;;;;;7.50;6.90;;;;;;;20.12;20.77;102808.50;5023585;28;20211;-69
2022/04/17 08:54:14;;;;;;;7.00;6.50;;;;;;;19.44;21.82;102802.00;5020732;28;20185;-70
2022/04/17 08:56:40;;;;;;;7.50;6.80;;;;;;;20.65;20.84;102808.59;5023505;28;20424;-70
2022/04/17 08:59:05;;;;;;;7.93;7.23;;;;;;;20.15;21.39;102803.19;5029795;28;20725;-70
2022/04/17 09:01:32;;;;;;;7.27;6.50;;;;;;;20.41;20.88;102789.13;5030191;28;20186;-71
2022/04/17 09:03:58;;;;;;;8.27;6.70;;;;;;;19.92;21.70;102786.38;5034355;28;20229;-72
2022/04/17 09:06:23;;;;;;;6.93;6.33;;;;;;;21.39;20.19;102787.28;5025824;28;20565;-71
2022/04/17 09:09:02;;;;;;;7.13;6.53;;;;;;;20.49;21.13;102790.00;5022794;28;20190;-71
2022/04/17 09:11:28;;;;;;;6.90;6.30;;;;;;;20.66;21.20;102783.84;5011924;28;20644;-70
2022/04/17 09:13:58;;;;;;;6.73;6.00;;;;;;;20.96;20.79;102782.06;5024753;28;20418;-71
2022/04/17 09:16:26;;;;;;;7.30;6.60;;;;;;;22.07;19.35;102770.22;5035626;28;20838;-71
2022/04/17 09:18:51;;;;;;;6.07;5.53;;;;;;;22.21;19.64;102776.34;5031326;28;20429;-71
2022/04/17 09:21:37;;;;;;;6.10;5.60;;;;;;;20.26;20.54;102778.53;5018776;28;20430;-72
2022/04/17 09:24:18;;;;;;;6.23;5.63;;;;;;;19.84;21.59;102767.81;5029259;28;20186;-70
2022/04/17 09:26:57;;;;;;;13.50;5.47;;;;;;;20.92;20.74;102769.72;5017579;28;20520;-69
2022/04/17 09:29:28;;;;;;;5.43;5.00;;;;;;;21.48;20.38;102758.06;5017232;28;20821;-70
2022/04/17 09:32:14;;;;;;;6.33;5.83;;;;;;;19.49;22.00;102768.53;5021050;28;20425;-72
2022/04/17 09:34:52;;;;;;;5.60;5.20;;;;;;;18.21;23.21;102759.59;5026287;28;20425;-70
2022/04/17 09:37:19;;;;;;;6.20;5.60;;;;;;;20.71;21.20;102755.59;5020236;28;20434;-69
2022/04/17 09:39:45;;;;;;;5.50;5.00;;;;;;;20.02;21.82;102744.06;5018924;28;20450;-71
2022/04/17 09:42:11;;;;;;;6.43;5.10;;;;;;;21.03;19.77;102739.66;5023946;28;20425;-72
2022/04/17 09:44:36;;;;;;;6.13;5.30;;;;;;;19.68;21.80;102743.03;5016364;28;20453;-72
2022/04/17 09:47:03;;;;;;;5.60;5.10;;;;;;;20.15;21.10;102739.66;5020301;28;20496;-72
2022/04/17 09:49:29;;;;;;;6.07;5.50;;;;;;;20.43;19.97;102744.09;5022502;28;20578;-74
2022/04/17 09:52:07;;;;;;;5.93;4.77;;;;;;;19.06;21.71;102726.84;5022292;28;20441;-72
2022/04/17 09:54:33;;;;;;;4.80;4.40;;;;;;;22.10;19.66;102715.31;5028380;28;20564;-73
2022/04/17 09:56:58;;;;;;;5.27;4.43;;;;;;;18.81;22.01;102720.50;5034846;28;20422;-73
2022/04/17 09:59:24;;;;;;;5.10;4.70;;;;;;;18.54;23.11;102714.13;5038666;28;20178;-72
2022/04/17 10:01:51;;;;;;;4.93;4.53;;;;;;;21.23;19.86;102709.56;5028197;28;20253;-72
2022/04/17 10:04:19;;;;;;;5.10;4.70;;;;;;;22.78;19.85;102696.13;5021089;28;20261;-63
2022/04/17 10:06:46;;;;;;;4.17;3.87;;;;;;;21.98;18.70;102694.16;5027074;28;20460;-73
2022/04/17 10:09:11;;;;;;;4.83;4.33;;;;;;;22.43;19.28;102689.38;5018669;28;20444;-74
2022/04/17 10:11:37;;;;;;;5.83;5.33;;;;;;;21.96;18.07;102691.50;5040362;28;20511;-73
2022/04/17 10:14:04;;;;;;;5.17;4.70;;;;;;;19.06;21.26;102705.69;5026609;28;20539;-74
2022/04/17 10:16:31;;;;;;;4.90;4.40;;;;;;;19.97;20.05;102698.16;5037677;28;20420;-73
2022/04/17 10:18:57;;;;;;;4.83;4.43;;;;;;;18.61;21.56;102699.22;5021960;28;20421;-73
2022/04/17 10:21:24;;;;;;;5.17;4.70;;;;;;;19.26;21.39;102691.72;5026223;28;20853;-73
2022/04/17 10:23:53;;;;;;;4.80;4.40;;;;;;;21.06;19.45;102675.13;5033862;28;20456;-76
2022/04/17 10:26:20;;;;;;;4.77;4.30;;;;;;;20.83;19.03;102681.34;5021806;28;20469;-76
2022/04/17 10:28:49;;;;;;;4.57;4.20;;;;;;;19.14;20.22;102677.53;5019980;28;20422;-74
2022/04/17 10:31:19;;;;;;;4.90;4.50;;;;;;;20.97;19.00;102664.53;5022332;28;20704;-74
2022/04/17 10:34:13;;;;;;;4.77;4.37;;;;;;;18.82;21.12;102675.59;5020874;28;20429;-75
2022/04/17 10:37:04;;;;;;;4.40;3.90;;;;;;;18.27;22.18;102668.13;5021690;28;20440;-74
2022/04/17 10:39:32;;;;;;;4.67;4.20;;;;;;;20.18;20.14;102657.53;5020233;28;20441;-75
2022/04/17 10:41:58;;;;;;;4.40;4.00;;;;;;;19.75;20.64;102669.84;5030732;28;20709;-74
2022/04/17 10:44:28;;;;;;;4.67;4.27;;;;;;;21.46;19.15;102640.47;5025680;28;20423;-71
2022/04/17 10:46:54;;;;;;;4.60;4.20;;;;;;;21.58;18.74;102638.66;5021210;28;20429;-71
2022/04/17 10:49:21;;;;;;;5.30;4.57;;;;;;;21.06;19.19;102640.66;5021736;28;20681;-76
2022/04/17 10:51:54;;;;;;;4.50;4.10;;;;;;;21.17;18.52;102630.00;5032419;28;20236;-75
2022/04/17 10:54:19;;;;;;;4.13;3.83;;;;;;;21.31;19.15;102630.81;5024083;28;20416;-74
2022/04/17 10:56:58;;;;;;;4.10;3.70;;;;;;;19.27;20.72;102641.47;5025906;28;20818;-72
2022/04/17 10:59:30;;;;;;;4.17;3.77;;;;;;;21.81;18.65;102626.13;5029352;28;20205;-72
2022/04/17 11:02:18;;;;;;;5.73;4.63;;;;;;;21.71;18.80;102616.44;5027727;28;20460;-73
2022/04/17 11:04:53;;;;;;;4.83;4.33;;;;;;;21.28;19.79;102617.53;5037402;28;20698;-72
2022/04/17 11:07:21;;;;;;;4.83;4.17;;;;;;;21.59;19.23;102614.75;5027726;28;20691;-72
2022/04/17 11:09:52;;;;;;;4.17;3.77;;;;;;;21.55;18.85;102612.13;5027050;28;20852;-74
2022/04/17 11:12:17;;;;;;;4.30;4.00;;;;;;;22.04;18.17;102609.09;5022154;28;20435;-74
2022/04/17 11:15:17;;;;;;;3.90;3.60;;;;;;;21.03;18.86;102603.53;5023073;28;20501;-75
2022/04/17 11:17:43;;;;;;;3.80;3.50;;;;;;;20.76;18.37;102608.06;5014459;28;20189;-75
2022/04/17 11:20:09;;;;;;;3.73;3.43;;;;;;;20.72;19.32;102614.25;5023245;28;20762;-74
2022/04/17 11:22:37;;;;;;;3.70;3.40;;;;;;;20.48;17.28;102610.72;5027442;28;20528;-72
2022/04/17 11:25:07;;;;;;;3.97;3.60;;;;;;;20.84;17.78;102600.09;5023530;28;20543;-72
2022/04/17 11:27:46;;;;;;;3.87;3.57;;;;;;;21.15;17.65;102603.47;5035635;28;20412;-72
2022/04/17 11:30:14;;;;;;;3.80;3.40;;;;;;;17.64;19.65;102607.72;5014747;28;20882;-73
2022/04/17 11:32:39;;;;;;;4.00;3.70;;;;;;;17.39;20.27;102611.84;5039599;28;20549;-73
2022/04/17 11:35:07;;;;;;;3.93;3.47;;;;;;;17.32;19.51;102617.91;5035153;28;20417;-74
2022/04/17 11:37:35;;;;;;;5.63;3.90;;;;;;;17.31;19.54;102613.50;5025747;28;20266;-70